sensor_id;sensor_type;location;lat;lon;timestamp;pressure;altitude;pressure_sealevel;temperature;humidity
48555;BME280;34336;48.270;16.716;2023-02-18T00:01:23;76233.78;;;18.16;64.43
48555;BME280;34336;48.270;16.716;2023-02-18T00:03:50;76228.00;;;18.16;64.51
48555;BME280;34336;48.270;16.716;2023-02-18T00:06:24;76216.44;;;18.16;63.86
48555;BME280;34336;48.270;16.716;2023-02-18T00:08:52;76228.00;;;18.16;64.04
48555;BME280;34336;48.270;16.716;2023-02-18T00:11:20;76222.22;;;18.16;63.96
48555;BME280;34336;48.270;16.716;2023-02-18T00:13:57;76235.69;;;18.16;64.48
48555;BME280;34336;48.270;16.716;2023-02-18T00:16:26;76243.41;;;18.16;64.48
48555;BME280;34336;48.270;16.716;2023-02-18T00:18:57;76254.97;;;18.16;64.77
48555;BME280;34336;48.270;16.716;2023-02-18T00:21:24;76251.13;;;18.16;64.49
48555;BME280;34336;48.270;16.716;2023-02-18T00:23:51;76266.53;;;18.16;64.43
48555;BME280;34336;48.270;16.716;2023-02-18T00:26:18;76270.38;;;18.16;64.80
48555;BME280;34336;48.270;16.716;2023-02-18T00:28:46;76272.31;;;18.16;64.99
48555;BME280;34336;48.270;16.716;2023-02-18T00:31:22;76262.66;;;18.16;64.35
48555;BME280;34336;48.270;16.716;2023-02-18T00:33:51;76274.22;;;18.16;64.56
48555;BME280;34336;48.270;16.716;2023-02-18T00:36:20;76272.31;;;18.16;64.54
48555;BME280;34336;48.270;16.716;2023-02-18T00:38:56;76276.16;;;18.16;64.72
48555;BME280;34336;48.270;16.716;2023-02-18T00:41:26;76281.94;;;18.16;64.75
48555;BME280;34336;48.270;16.716;2023-02-18T00:43:53;76274.22;;;18.16;64.91
48555;BME280;34336;48.270;16.716;2023-02-18T00:46:21;76280.00;;;18.16;64.74
48555;BME280;34336;48.270;16.716;2023-02-18T00:48:48;76289.66;;;18.16;65.04
48555;BME280;34336;48.270;16.716;2023-02-18T00:51:15;76285.78;;;18.16;65.23
48555;BME280;34336;48.270;16.716;2023-02-18T00:53:47;76289.66;;;18.16;65.17
48555;BME280;34336;48.270;16.716;2023-02-18T00:56:13;76289.66;;;18.16;65.15
48555;BME280;34336;48.270;16.716;2023-02-18T00:58:41;76293.50;;;18.16;65.68
48555;BME280;34336;48.270;16.716;2023-02-18T01:01:09;76287.72;;;18.16;65.70
48555;BME280;34336;48.270;16.716;2023-02-18T01:03:37;76293.50;;;18.16;65.37
48555;BME280;34336;48.270;16.716;2023-02-18T01:06:05;76293.50;;;18.16;65.64
48555;BME280;34336;48.270;16.716;2023-02-18T01:08:34;76285.78;;;18.16;65.62
48555;BME280;34336;48.270;16.716;2023-02-18T01:11:01;76287.72;;;18.16;65.59
48555;BME280;34336;48.270;16.716;2023-02-18T01:13:28;76287.72;;;18.16;65.89
48555;BME280;34336;48.270;16.716;2023-02-18T01:15:55;76301.22;;;18.16;66.22
48555;BME280;34336;48.270;16.716;2023-02-18T01:18:24;76301.22;;;18.16;66.17
48555;BME280;34336;48.270;16.716;2023-02-18T01:20:51;76293.50;;;18.16;65.50
48555;BME280;34336;48.270;16.716;2023-02-18T01:23:18;76285.78;;;18.16;65.59
48555;BME280;34336;48.270;16.716;2023-02-18T01:25:47;76281.94;;;18.16;65.59
48555;BME280;34336;48.270;16.716;2023-02-18T01:28:14;76289.66;;;18.16;65.73
48555;BME280;34336;48.270;16.716;2023-02-18T01:30:42;76274.22;;;18.16;65.28
48555;BME280;34336;48.270;16.716;2023-02-18T01:33:09;76272.31;;;18.16;65.39
48555;BME280;34336;48.270;16.716;2023-02-18T01:35:38;76262.66;;;18.16;65.23
48555;BME280;34336;48.270;16.716;2023-02-18T01:38:06;76262.66;;;18.16;65.11
48555;BME280;34336;48.270;16.716;2023-02-18T01:40:34;76270.38;;;18.16;65.74
48555;BME280;34336;48.270;16.716;2023-02-18T01:43:02;76266.53;;;18.16;65.17
48555;BME280;34336;48.270;16.716;2023-02-18T01:48:08;76260.75;;;18.16;65.11
48555;BME280;34336;48.270;16.716;2023-02-18T01:50:42;76262.66;;;18.16;64.83
48555;BME280;34336;48.270;16.716;2023-02-18T01:53:11;76249.19;;;18.16;64.85
48555;BME280;34336;48.270;16.716;2023-02-18T01:55:40;76233.78;;;18.16;64.38
48555;BME280;34336;48.270;16.716;2023-02-18T01:58:07;76210.66;;;18.16;63.66
48555;BME280;34336;48.270;16.716;2023-02-18T02:00:34;76201.00;;;18.16;63.64
48555;BME280;34336;48.270;16.716;2023-02-18T02:03:05;76195.22;;;18.16;63.16
48555;BME280;34336;48.270;16.716;2023-02-18T02:05:33;76208.72;;;18.16;63.49
48555;BME280;34336;48.270;16.716;2023-02-18T02:08:00;76208.72;;;18.16;63.16
48555;BME280;34336;48.270;16.716;2023-02-18T02:10:46;76208.72;;;18.16;63.66
48555;BME280;34336;48.270;16.716;2023-02-18T02:13:47;76204.88;;;18.16;63.24
48555;BME280;34336;48.270;16.716;2023-02-18T02:22:17;76197.16;;;18.16;62.87
48555;BME280;34336;48.270;16.716;2023-02-18T02:36:25;76216.44;;;18.16;63.01
48555;BME280;34336;48.270;16.716;2023-02-18T02:39:38;76222.22;;;18.16;62.85
48555;BME280;34336;48.270;16.716;2023-02-18T02:47:31;76226.06;;;18.16;63.26
48555;BME280;34336;48.270;16.716;2023-02-18T02:50:49;76220.28;;;18.16;63.29
48555;BME280;34336;48.270;16.716;2023-02-18T02:53:22;76214.50;;;18.16;63.24
48555;BME280;34336;48.270;16.716;2023-02-18T02:55:50;76218.34;;;18.16;63.14
48555;BME280;34336;48.270;16.716;2023-02-18T02:58:19;76228.00;;;18.16;63.60
48555;BME280;34336;48.270;16.716;2023-02-18T03:01:04;76229.91;;;18.16;63.53
48555;BME280;34336;48.270;16.716;2023-02-18T03:06:35;76231.84;;;18.16;63.77
48555;BME280;34336;48.270;16.716;2023-02-18T03:14:57;76249.19;;;18.16;64.24
48555;BME280;34336;48.270;16.716;2023-02-18T03:17:41;76239.56;;;18.16;64.30
48555;BME280;34336;48.270;16.716;2023-02-18T03:20:27;76245.34;;;18.16;64.33
48555;BME280;34336;48.270;16.716;2023-02-18T03:22:57;76243.41;;;18.16;64.22
48555;BME280;34336;48.270;16.716;2023-02-18T03:25:27;76262.66;;;18.16;64.63
48555;BME280;34336;48.270;16.716;2023-02-18T03:27:57;76251.13;;;18.16;64.73
48555;BME280;34336;48.270;16.716;2023-02-18T03:30:28;76251.13;;;18.16;64.37
48555;BME280;34336;48.270;16.716;2023-02-18T03:33:03;76251.13;;;18.16;64.33
48555;BME280;34336;48.270;16.716;2023-02-18T03:35:31;76247.25;;;18.16;64.36
48555;BME280;34336;48.270;16.716;2023-02-18T03:38:05;76258.81;;;18.16;64.27
48555;BME280;34336;48.270;16.716;2023-02-18T03:40:35;76241.47;;;18.16;64.13
48555;BME280;34336;48.270;16.716;2023-02-18T03:43:02;76262.66;;;18.16;64.48
48555;BME280;34336;48.270;16.716;2023-02-18T03:45:29;76266.53;;;18.16;64.78
48555;BME280;34336;48.270;16.716;2023-02-18T03:47:59;76258.81;;;18.16;64.81
48555;BME280;34336;48.270;16.716;2023-02-18T03:50:26;76262.66;;;18.16;64.71
48555;BME280;34336;48.270;16.716;2023-02-18T03:52:52;76254.97;;;18.16;64.60
48555;BME280;34336;48.270;16.716;2023-02-18T03:55:19;76264.59;;;18.16;64.66
48555;BME280;34336;48.270;16.716;2023-02-18T03:57:46;76266.53;;;18.16;64.64
48555;BME280;34336;48.270;16.716;2023-02-18T04:00:13;76278.09;;;18.16;64.78
48555;BME280;34336;48.270;16.716;2023-02-18T04:02:40;76285.78;;;18.16;65.04
48555;BME280;34336;48.270;16.716;2023-02-18T04:05:07;76287.72;;;18.16;64.77
48555;BME280;34336;48.270;16.716;2023-02-18T04:07:34;76291.56;;;18.16;65.22
48555;BME280;34336;48.270;16.716;2023-02-18T04:10:01;76285.78;;;18.16;65.18
48555;BME280;34336;48.270;16.716;2023-02-18T04:12:27;76289.66;;;18.16;65.06
48555;BME280;34336;48.270;16.716;2023-02-18T04:14:54;76281.94;;;18.16;64.83
48555;BME280;34336;48.270;16.716;2023-02-18T04:17:21;76285.78;;;18.16;65.26
48555;BME280;34336;48.270;16.716;2023-02-18T04:19:47;76283.88;;;18.16;65.13
48555;BME280;34336;48.270;16.716;2023-02-18T04:22:14;76291.56;;;18.16;64.96
48555;BME280;34336;48.270;16.716;2023-02-18T04:24:40;76293.50;;;18.16;65.08
48555;BME280;34336;48.270;16.716;2023-02-18T04:27:07;76289.66;;;18.16;64.96
48555;BME280;34336;48.270;16.716;2023-02-18T04:29:34;76289.66;;;18.16;65.26
48555;BME280;34336;48.270;16.716;2023-02-18T04:32:01;76289.66;;;18.16;65.20
48555;BME280;34336;48.270;16.716;2023-02-18T04:34:28;76274.22;;;18.16;65.05
48555;BME280;34336;48.270;16.716;2023-02-18T04:36:54;76285.78;;;18.16;65.11
48555;BME280;34336;48.270;16.716;2023-02-18T04:39:22;76285.78;;;18.16;65.03
48555;BME280;34336;48.270;16.716;2023-02-18T04:41:48;76289.66;;;18.16;65.10
48555;BME280;34336;48.270;16.716;2023-02-18T04:44:15;76301.22;;;18.16;65.35
48555;BME280;34336;48.270;16.716;2023-02-18T04:46:42;76297.34;;;18.16;64.97
48555;BME280;34336;48.270;16.716;2023-02-18T04:49:08;76301.22;;;18.16;65.22
48555;BME280;34336;48.270;16.716;2023-02-18T04:51:35;76281.94;;;18.16;65.01
48555;BME280;34336;48.270;16.716;2023-02-18T04:54:03;76281.94;;;18.16;64.82
48555;BME280;34336;48.270;16.716;2023-02-18T04:56:30;76278.09;;;18.16;64.68
48555;BME280;34336;48.270;16.716;2023-02-18T04:58:57;76293.50;;;18.16;64.62
48555;BME280;34336;48.270;16.716;2023-02-18T05:01:23;76301.22;;;18.16;64.83
48555;BME280;34336;48.270;16.716;2023-02-18T05:03:50;76301.22;;;18.16;64.62
48555;BME280;34336;48.270;16.716;2023-02-18T05:06:17;76312.78;;;18.16;64.88
48555;BME280;34336;48.270;16.716;2023-02-18T05:08:43;76312.78;;;18.16;65.05
48555;BME280;34336;48.270;16.716;2023-02-18T05:11:10;76316.63;;;18.16;64.88
48555;BME280;34336;48.270;16.716;2023-02-18T05:13:37;76322.41;;;18.16;65.37
48555;BME280;34336;48.270;16.716;2023-02-18T05:16:03;76335.91;;;18.16;65.55
48555;BME280;34336;48.270;16.716;2023-02-18T05:18:30;76335.91;;;18.16;65.63
48555;BME280;34336;48.270;16.716;2023-02-18T05:20:57;76347.47;;;18.16;66.03
48555;BME280;34336;48.270;16.716;2023-02-18T05:23:23;76351.31;;;18.16;65.94
48555;BME280;34336;48.270;16.716;2023-02-18T05:25:51;76351.31;;;18.16;65.77
48555;BME280;34336;48.270;16.716;2023-02-18T05:28:17;76355.16;;;18.16;65.88
48555;BME280;34336;48.270;16.716;2023-02-18T05:30:44;76343.59;;;18.16;65.87
48555;BME280;34336;48.270;16.716;2023-02-18T05:33:11;76337.81;;;18.16;65.39
48555;BME280;34336;48.270;16.716;2023-02-18T05:35:38;76347.47;;;18.16;65.28
48555;BME280;34336;48.270;16.716;2023-02-18T05:38:05;76347.47;;;18.16;65.56
48555;BME280;34336;48.270;16.716;2023-02-18T05:40:31;76351.31;;;18.16;65.42
48555;BME280;34336;48.270;16.716;2023-02-18T05:42:58;76341.69;;;18.16;65.25
48555;BME280;34336;48.270;16.716;2023-02-18T05:45:25;76347.47;;;18.16;65.47
48555;BME280;34336;48.270;16.716;2023-02-18T05:47:52;76351.31;;;18.16;65.37
48555;BME280;34336;48.270;16.716;2023-02-18T05:50:18;76351.31;;;18.16;65.46
48555;BME280;34336;48.270;16.716;2023-02-18T05:52:45;76335.91;;;18.16;64.82
48555;BME280;34336;48.270;16.716;2023-02-18T05:55:12;76332.03;;;18.16;64.83
48555;BME280;34336;48.270;16.716;2023-02-18T05:57:39;76345.53;;;18.16;64.91
48555;BME280;34336;48.270;16.716;2023-02-18T06:00:06;76343.59;;;18.16;64.69
48555;BME280;34336;48.270;16.716;2023-02-18T06:02:35;76328.19;;;18.16;64.47
48555;BME280;34336;48.270;16.716;2023-02-18T06:05:03;76347.47;;;18.16;65.04
48555;BME280;34336;48.270;16.716;2023-02-18T06:07:30;76357.09;;;18.16;64.99
48555;BME280;34336;48.270;16.716;2023-02-18T06:09:57;76362.88;;;18.16;66.06
48555;BME280;34336;48.270;16.716;2023-02-18T06:12:24;76370.56;;;18.16;67.84
48555;BME280;34336;48.270;16.716;2023-02-18T06:14:51;76382.13;;;18.16;69.23
48555;BME280;34336;48.270;16.716;2023-02-18T06:17:18;76397.56;;;18.16;70.38
48555;BME280;34336;48.270;16.716;2023-02-18T06:19:45;76405.25;;;18.16;70.98
48555;BME280;34336;48.270;16.716;2023-02-18T06:22:11;76422.59;;;18.16;71.69
48555;BME280;34336;48.270;16.716;2023-02-18T06:24:38;76438.03;;;18.16;72.06
48555;BME280;34336;48.270;16.716;2023-02-18T06:27:05;76436.09;;;18.16;70.35
48555;BME280;34336;48.270;16.716;2023-02-18T06:29:32;76434.16;;;18.16;69.95
48555;BME280;34336;48.270;16.716;2023-02-18T06:32:01;76436.09;;;18.16;69.68
48555;BME280;34336;48.270;16.716;2023-02-18T06:34:28;76436.09;;;18.16;69.67
48555;BME280;34336;48.270;16.716;2023-02-18T06:36:54;76426.47;;;18.16;68.61
48555;BME280;34336;48.270;16.716;2023-02-18T06:39:21;76424.53;;;18.16;68.91
48555;BME280;34336;48.270;16.716;2023-02-18T06:41:48;76416.81;;;18.16;68.63
48555;BME280;34336;48.270;16.716;2023-02-18T06:44:14;76414.91;;;18.16;68.10
48555;BME280;34336;48.270;16.716;2023-02-18T06:46:43;76416.81;;;18.16;68.28
48555;BME280;34336;48.270;16.716;2023-02-18T06:49:10;76412.97;;;18.16;68.18
48555;BME280;34336;48.270;16.716;2023-02-18T06:51:36;76412.97;;;18.16;67.61
48555;BME280;34336;48.270;16.716;2023-02-18T06:54:03;76409.13;;;18.16;67.73
48555;BME280;34336;48.270;16.716;2023-02-18T06:56:31;76409.13;;;18.16;67.52
48555;BME280;34336;48.270;16.716;2023-02-18T06:58:58;76409.13;;;18.16;67.69
48555;BME280;34336;48.270;16.716;2023-02-18T07:01:25;76405.25;;;18.16;68.84
48555;BME280;34336;48.270;16.716;2023-02-18T07:03:51;76409.13;;;18.16;70.48
48555;BME280;34336;48.270;16.716;2023-02-18T07:06:18;76422.59;;;18.16;71.27
48555;BME280;34336;48.270;16.716;2023-02-18T07:08:45;76447.66;;;18.16;71.79
48555;BME280;34336;48.270;16.716;2023-02-18T07:11:11;76459.22;;;18.16;72.73
48555;BME280;34336;48.270;16.716;2023-02-18T07:13:38;76463.06;;;18.16;73.15
48555;BME280;34336;48.270;16.716;2023-02-18T07:16:05;76463.06;;;18.16;73.91
48555;BME280;34336;48.270;16.716;2023-02-18T07:18:32;76461.16;;;18.16;74.13
48555;BME280;34336;48.270;16.716;2023-02-18T07:20:59;76466.94;;;18.16;74.52
48555;BME280;34336;48.270;16.716;2023-02-18T07:23:26;76476.56;;;18.16;74.91
48555;BME280;34336;48.270;16.716;2023-02-18T07:26:08;76470.78;;;18.16;75.22
48555;BME280;34336;48.270;16.716;2023-02-18T07:28:35;76468.84;;;18.16;75.28
48555;BME280;34336;48.270;16.716;2023-02-18T07:31:02;76466.94;;;18.16;75.71
48555;BME280;34336;48.270;16.716;2023-02-18T07:33:30;76466.94;;;18.16;75.85
48555;BME280;34336;48.270;16.716;2023-02-18T07:35:59;76453.44;;;18.16;75.79
48555;BME280;34336;48.270;16.716;2023-02-18T07:38:26;76447.66;;;18.16;75.73
48555;BME280;34336;48.270;16.716;2023-02-18T07:40:54;76439.94;;;18.16;75.05
48555;BME280;34336;48.270;16.716;2023-02-18T07:43:21;76412.97;;;18.16;73.36
48555;BME280;34336;48.270;16.716;2023-02-18T07:45:48;76378.28;;;18.16;71.62
48555;BME280;34336;48.270;16.716;2023-02-18T07:48:15;76335.91;;;18.16;69.73
48555;BME280;34336;48.270;16.716;2023-02-18T07:50:43;76314.69;;;18.16;68.55
48555;BME280;34336;48.270;16.716;2023-02-18T07:53:12;76305.06;;;18.16;68.02
48555;BME280;34336;48.270;16.716;2023-02-18T07:55:39;76301.22;;;18.16;68.10
48555;BME280;34336;48.270;16.716;2023-02-18T07:58:18;76291.56;;;18.16;67.70
48555;BME280;34336;48.270;16.716;2023-02-18T08:00:46;76283.88;;;18.16;67.60
48555;BME280;34336;48.270;16.716;2023-02-18T08:03:14;76295.44;;;18.16;67.15
48555;BME280;34336;48.270;16.716;2023-02-18T08:05:40;76289.66;;;18.16;67.03
48555;BME280;34336;48.270;16.716;2023-02-18T08:08:11;76285.78;;;18.16;67.17
48555;BME280;34336;48.270;16.716;2023-02-18T08:10:39;76297.34;;;18.16;67.42
48555;BME280;34336;48.270;16.716;2023-02-18T08:13:05;76289.66;;;18.16;67.31
48555;BME280;34336;48.270;16.716;2023-02-18T08:15:32;76285.78;;;18.16;67.65
48555;BME280;34336;48.270;16.716;2023-02-18T08:17:59;76278.09;;;18.16;67.36
48555;BME280;34336;48.270;16.716;2023-02-18T08:20:26;76283.88;;;18.16;67.51
48555;BME280;34336;48.270;16.716;2023-02-18T08:22:56;76268.44;;;18.16;67.20
48555;BME280;34336;48.270;16.716;2023-02-18T08:25:22;76254.97;;;18.16;66.97
48555;BME280;34336;48.270;16.716;2023-02-18T08:27:55;76247.25;;;18.16;66.43
48555;BME280;34336;48.270;16.716;2023-02-18T08:30:22;76231.84;;;18.16;66.70
48555;BME280;34336;48.270;16.716;2023-02-18T08:32:49;76216.44;;;18.16;66.23
48555;BME280;34336;48.270;16.716;2023-02-18T08:35:16;76197.16;;;18.16;65.52
48555;BME280;34336;48.270;16.716;2023-02-18T08:37:42;76204.88;;;18.16;65.71
48555;BME280;34336;48.270;16.716;2023-02-18T08:40:19;76208.72;;;18.16;66.00
48555;BME280;34336;48.270;16.716;2023-02-18T08:42:46;76202.94;;;18.16;65.86
48555;BME280;34336;48.270;16.716;2023-02-18T08:45:13;76201.00;;;18.16;65.29
48555;BME280;34336;48.270;16.716;2023-02-18T08:47:39;76206.78;;;18.16;65.69
48555;BME280;34336;48.270;16.716;2023-02-18T08:50:26;76197.16;;;18.16;65.75
48555;BME280;34336;48.270;16.716;2023-02-18T08:52:53;76193.31;;;18.16;65.25
48555;BME280;34336;48.270;16.716;2023-02-18T08:55:20;76177.91;;;18.16;65.46
48555;BME280;34336;48.270;16.716;2023-02-18T08:57:47;76185.59;;;18.16;65.17
48555;BME280;34336;48.270;16.716;2023-02-18T09:00:15;76189.44;;;18.16;64.66
48555;BME280;34336;48.270;16.716;2023-02-18T09:02:43;76177.91;;;18.16;64.93
48555;BME280;34336;48.270;16.716;2023-02-18T09:05:11;76174.03;;;18.16;64.76
48555;BME280;34336;48.270;16.716;2023-02-18T09:07:38;76185.59;;;18.16;64.90
48555;BME280;34336;48.270;16.716;2023-02-18T09:10:06;76181.75;;;18.16;65.14
48555;BME280;34336;48.270;16.716;2023-02-18T09:12:33;76185.59;;;18.16;65.07
48555;BME280;34336;48.270;16.716;2023-02-18T09:15:00;76187.53;;;18.16;65.20
48555;BME280;34336;48.270;16.716;2023-02-18T09:17:27;76172.13;;;18.16;65.21
48555;BME280;34336;48.270;16.716;2023-02-18T09:19:54;76162.47;;;18.16;64.99
48555;BME280;34336;48.270;16.716;2023-02-18T09:22:21;76162.47;;;18.16;65.22
48555;BME280;34336;48.270;16.716;2023-02-18T09:24:47;76164.41;;;18.16;65.15
48555;BME280;34336;48.270;16.716;2023-02-18T09:27:14;76147.06;;;18.16;65.05
48555;BME280;34336;48.270;16.716;2023-02-18T09:29:41;76149.00;;;18.16;64.98
48555;BME280;34336;48.270;16.716;2023-02-18T09:32:08;76143.22;;;18.16;65.25
48555;BME280;34336;48.270;16.716;2023-02-18T09:34:37;76141.28;;;18.16;65.10
48555;BME280;34336;48.270;16.716;2023-02-18T09:37:04;76139.34;;;18.16;65.57
48555;BME280;34336;48.270;16.716;2023-02-18T09:39:30;76137.44;;;18.16;65.94
48555;BME280;34336;48.270;16.716;2023-02-18T09:42:00;76131.66;;;18.16;66.04
48555;BME280;34336;48.270;16.716;2023-02-18T09:44:38;76129.72;;;18.16;66.15
48555;BME280;34336;48.270;16.716;2023-02-18T09:49:38;76120.09;;;18.16;65.89
48555;BME280;34336;48.270;16.716;2023-02-18T09:54:37;76135.50;;;18.16;66.13
48555;BME280;34336;48.270;16.716;2023-02-18T09:57:05;76133.56;;;18.16;66.63
48555;BME280;34336;48.270;16.716;2023-02-18T09:59:41;76135.50;;;18.16;66.14
48555;BME280;34336;48.270;16.716;2023-02-18T10:02:13;76122.00;;;18.16;65.70
48555;BME280;34336;48.270;16.716;2023-02-18T10:04:43;76112.38;;;18.16;65.56
48555;BME280;34336;48.270;16.716;2023-02-18T10:07:25;76116.25;;;18.16;65.80
48555;BME280;34336;48.270;16.716;2023-02-18T10:09:55;76118.16;;;18.16;65.83
48555;BME280;34336;48.270;16.716;2023-02-18T10:12:25;76110.47;;;18.16;65.22
48555;BME280;34336;48.270;16.716;2023-02-18T10:14:54;76098.91;;;18.16;65.38
48555;BME280;34336;48.270;16.716;2023-02-18T10:17:25;76083.47;;;18.16;65.06
48555;BME280;34336;48.270;16.716;2023-02-18T10:19:54;76054.59;;;18.16;65.16
48555;BME280;34336;48.270;16.716;2023-02-18T10:22:23;76031.47;;;18.16;63.94
48555;BME280;34336;48.270;16.716;2023-02-18T10:24:53;76019.91;;;18.16;63.42
48555;BME280;34336;48.270;16.716;2023-02-18T10:27:27;76008.34;;;18.16;63.45
48555;BME280;34336;48.270;16.716;2023-02-18T10:32:35;75917.78;;;18.16;61.71
48555;BME280;34336;48.270;16.716;2023-02-18T10:35:22;75915.84;;;18.16;60.19
48555;BME280;34336;48.270;16.716;2023-02-18T10:38:17;75900.44;;;18.16;59.78
48555;BME280;34336;48.270;16.716;2023-02-18T10:44:34;75861.91;;;18.16;58.94
48555;BME280;34336;48.270;16.716;2023-02-18T10:52:27;75898.53;;;18.16;58.64
48555;BME280;34336;48.270;16.716;2023-02-18T10:55:06;75890.81;;;18.16;58.60
48555;BME280;34336;48.270;16.716;2023-02-18T10:57:45;75865.75;;;18.16;58.05
48555;BME280;34336;48.270;16.716;2023-02-18T11:00:34;75869.63;;;18.16;58.19
48555;BME280;34336;48.270;16.716;2023-02-18T11:05:43;75873.47;;;18.16;58.49
48555;BME280;34336;48.270;16.716;2023-02-18T11:08:16;75861.91;;;18.16;58.61
48555;BME280;34336;48.270;16.716;2023-02-18T11:10:45;75896.59;;;18.16;58.98
48555;BME280;34336;48.270;16.716;2023-02-18T11:13:27;75896.59;;;18.16;59.36
48555;BME280;34336;48.270;16.716;2023-02-18T11:16:01;75894.66;;;18.16;58.94
48555;BME280;34336;48.270;16.716;2023-02-18T11:18:44;75912.00;;;18.16;59.48
48555;BME280;34336;48.270;16.716;2023-02-18T11:23:52;75912.00;;;18.16;59.20
48555;BME280;34336;48.270;16.716;2023-02-18T11:26:28;75888.88;;;18.16;59.04
48555;BME280;34336;48.270;16.716;2023-02-18T11:29:40;75896.59;;;18.16;58.99
48555;BME280;34336;48.270;16.716;2023-02-18T11:31:50;75875.41;;;18.16;59.27
48555;BME280;34336;48.270;16.716;2023-02-18T11:34:24;75877.31;;;18.16;59.89
48555;BME280;34336;48.270;16.716;2023-02-18T11:36:52;75861.91;;;18.16;58.57
48555;BME280;34336;48.270;16.716;2023-02-18T11:42:17;75827.22;;;18.16;58.54
48555;BME280;34336;48.270;16.716;2023-02-18T11:44:56;75796.41;;;18.16;57.91
48555;BME280;34336;48.270;16.716;2023-02-18T11:47:34;75819.53;;;18.16;58.75
48555;BME280;34336;48.270;16.716;2023-02-18T11:50:14;75800.25;;;18.16;58.75
48555;BME280;34336;48.270;16.716;2023-02-18T11:52:46;75757.88;;;18.16;58.16
48555;BME280;34336;48.270;16.716;2023-02-18T11:55:22;75688.53;;;18.16;56.88
48555;BME280;34336;48.270;16.716;2023-02-18T11:57:58;75657.69;;;18.16;55.40
48555;BME280;34336;48.270;16.716;2023-02-18T12:00:48;75680.81;;;18.16;55.24
48555;BME280;34336;48.270;16.716;2023-02-18T12:03:43;75688.53;;;18.16;55.32
48555;BME280;34336;48.270;16.716;2023-02-18T12:06:37;75676.97;;;18.16;55.79
48555;BME280;34336;48.270;16.716;2023-02-18T12:09:16;75707.78;;;18.16;55.69
48555;BME280;34336;48.270;16.716;2023-02-18T12:11:50;75661.56;;;18.16;55.98
48555;BME280;34336;48.270;16.716;2023-02-18T12:14:20;75634.56;;;18.16;55.50
48555;BME280;34336;48.270;16.716;2023-02-18T12:22:45;75684.66;;;18.16;55.48
48555;BME280;34336;48.270;16.716;2023-02-18T12:37:00;75692.38;;;18.16;55.27
48555;BME280;34336;48.270;16.716;2023-02-18T12:39:39;75696.22;;;18.16;55.25
48555;BME280;34336;48.270;16.716;2023-02-18T12:48:28;75698.16;;;18.16;55.32
48555;BME280;34336;48.270;16.716;2023-02-18T12:54:11;75680.81;;;18.16;54.52
48555;BME280;34336;48.270;16.716;2023-02-18T13:08:27;75586.41;;;18.16;52.10
48555;BME280;34336;48.270;16.716;2023-02-18T13:11:22;75619.16;;;18.16;51.36
48555;BME280;34336;48.270;16.716;2023-02-18T13:16:23;75619.16;;;18.16;51.59
48555;BME280;34336;48.270;16.716;2023-02-18T13:19:17;75623.03;;;18.16;51.54
48555;BME280;34336;48.270;16.716;2023-02-18T13:21:49;75615.31;;;18.16;50.90
48555;BME280;34336;48.270;16.716;2023-02-18T13:24:27;75607.59;;;18.16;50.72
48555;BME280;34336;48.270;16.716;2023-02-18T13:29:39;75615.31;;;18.16;51.01
48555;BME280;34336;48.270;16.716;2023-02-18T13:32:27;75615.31;;;18.16;50.77
48555;BME280;34336;48.270;16.716;2023-02-18T13:35:04;75603.75;;;18.16;50.85
48555;BME280;34336;48.270;16.716;2023-02-18T13:40:27;75571.00;;;18.16;49.75
48555;BME280;34336;48.270;16.716;2023-02-18T13:43:32;75578.72;;;18.16;49.84
48555;BME280;34336;48.270;16.716;2023-02-18T13:56:57;75572.94;;;18.16;48.27
48555;BME280;34336;48.270;16.716;2023-02-18T13:59:46;75572.94;;;18.16;48.80
48555;BME280;34336;48.270;16.716;2023-02-18T14:13:00;75561.38;;;18.16;48.67
48555;BME280;34336;48.270;16.716;2023-02-18T14:26:07;75580.63;;;18.16;48.40
48555;BME280;34336;48.270;16.716;2023-02-18T14:34:24;75611.47;;;18.16;48.51
48555;BME280;34336;48.270;16.716;2023-02-18T14:40:19;75611.47;;;18.16;47.79
48555;BME280;34336;48.270;16.716;2023-02-18T14:43:03;75615.31;;;18.16;47.51
48555;BME280;34336;48.270;16.716;2023-02-18T14:51:08;75626.88;;;18.16;47.95
48555;BME280;34336;48.270;16.716;2023-02-18T14:53:42;75624.94;;;18.16;47.80
48555;BME280;34336;48.270;16.716;2023-02-18T14:56:14;75626.88;;;18.16;47.96
48555;BME280;34336;48.270;16.716;2023-02-18T14:58:45;75626.88;;;18.16;47.81
48555;BME280;34336;48.270;16.716;2023-02-18T15:01:27;75626.88;;;18.16;47.76
48555;BME280;34336;48.270;16.716;2023-02-18T15:03:55;75630.72;;;18.16;48.08
48555;BME280;34336;48.270;16.716;2023-02-18T15:06:30;75638.44;;;18.16;48.19
48555;BME280;34336;48.270;16.716;2023-02-18T15:08:58;75644.22;;;18.16;48.63
48555;BME280;34336;48.270;16.716;2023-02-18T15:11:39;75653.84;;;18.16;49.13
48555;BME280;34336;48.270;16.716;2023-02-18T15:14:20;75669.25;;;18.16;49.40
48555;BME280;34336;48.270;16.716;2023-02-18T15:16:47;75669.25;;;18.16;49.61
48555;BME280;34336;48.270;16.716;2023-02-18T15:19:16;75673.09;;;18.16;49.95
48555;BME280;34336;48.270;16.716;2023-02-18T15:21:53;75676.97;;;18.16;49.78
48555;BME280;34336;48.270;16.716;2023-02-18T15:24:24;75678.88;;;18.16;49.64
48555;BME280;34336;48.270;16.716;2023-02-18T15:26:55;75680.81;;;18.16;49.83
48555;BME280;34336;48.270;16.716;2023-02-18T15:29:25;75673.09;;;18.16;50.06
48555;BME280;34336;48.270;16.716;2023-02-18T15:31:54;75671.19;;;18.16;49.97
48555;BME280;34336;48.270;16.716;2023-02-18T15:34:26;75669.25;;;18.16;49.75
48555;BME280;34336;48.270;16.716;2023-02-18T15:36:56;75665.41;;;18.16;49.55
48555;BME280;34336;48.270;16.716;2023-02-18T15:39:27;75673.09;;;18.16;49.88
48555;BME280;34336;48.270;16.716;2023-02-18T15:41:56;75678.88;;;18.16;50.19